K3L4

Grand Chenier Airport

Grand Chenier, Louisiana, USA
METAR K3L4 182335Z AUTO 22009KT 10SM SCT027 SCT035 30/25 A2995 RMK A01
Observed Flight Rules
Aug-18 @ 23:35 UTC (12 minutes ago) Visual Flight Rules
Wind Visibility Clouds
220° at 9 knots 10 miles
  • Scattered at 2,700' AGL
  • Scattered at 3,500' AGL
Temperatures Readings
Current 30°C / 86°F
Dewpoint 25°C / 77°F
Humidity 75%
Altimeter 29.95" Hg
Pressure 1014 hPa
Elevation 2
METAR K3L4 182335Z AUTO 22009KT 10SM SCT027 SCT035 30/25 A2995 RMK A01
Observed Flight Rules
Aug-18 @ 23:35 UTC
(12 minutes ago)
VFR
Wind Visibility
220° at 9 knots 10 miles
Clouds
  • Scattered at 2,700' AGL
  • Scattered at 3,500' AGL
Temperature Dewpoint
30°C / 86°F 25°C / 77°F
Humidity Altimeter Pressure
75% 29.95" Hg 1014 hPa